sensor_id;sensor_type;location;lat;lon;timestamp;temperature;humidity
31207;DHT22;17834;52.992;8.856;2022-07-01T00:00:49;18.30;99.90
31207;DHT22;17834;52.992;8.856;2022-07-01T00:03:15;18.30;99.90
31207;DHT22;17834;52.992;8.856;2022-07-01T00:05:42;18.20;99.90
31207;DHT22;17834;52.992;8.856;2022-07-01T00:08:08;18.10;99.90
31207;DHT22;17834;52.992;8.856;2022-07-01T00:10:33;18.00;99.90
31207;DHT22;17834;52.992;8.856;2022-07-01T00:13:01;18.00;99.90
31207;DHT22;17834;52.992;8.856;2022-07-01T00:15:27;17.90;99.90
31207;DHT22;17834;52.992;8.856;2022-07-01T00:17:52;17.90;99.90
31207;DHT22;17834;52.992;8.856;2022-07-01T00:20:18;17.90;99.90
31207;DHT22;17834;52.992;8.856;2022-07-01T00:22:44;17.90;99.90
31207;DHT22;17834;52.992;8.856;2022-07-01T00:25:10;18.00;99.90
31207;DHT22;17834;52.992;8.856;2022-07-01T00:27:39;18.00;99.90
31207;DHT22;17834;52.992;8.856;2022-07-01T00:30:07;18.10;99.90
31207;DHT22;17834;52.992;8.856;2022-07-01T00:32:32;18.10;99.90
31207;DHT22;17834;52.992;8.856;2022-07-01T00:34:58;18.10;99.90
31207;DHT22;17834;52.992;8.856;2022-07-01T00:37:24;18.10;99.90
31207;DHT22;17834;52.992;8.856;2022-07-01T00:39:49;18.10;99.90
31207;DHT22;17834;52.992;8.856;2022-07-01T00:42:15;18.20;99.90
31207;DHT22;17834;52.992;8.856;2022-07-01T00:44:40;18.20;99.90
31207;DHT22;17834;52.992;8.856;2022-07-01T00:47:10;18.10;99.90
31207;DHT22;17834;52.992;8.856;2022-07-01T00:49:38;18.10;99.90
31207;DHT22;17834;52.992;8.856;2022-07-01T00:52:08;18.10;99.90
31207;DHT22;17834;52.992;8.856;2022-07-01T00:54:35;18.10;99.90
31207;DHT22;17834;52.992;8.856;2022-07-01T00:57:11;18.00;99.90
31207;DHT22;17834;52.992;8.856;2022-07-01T00:59:38;18.00;99.90
31207;DHT22;17834;52.992;8.856;2022-07-01T01:02:05;18.00;99.90
31207;DHT22;17834;52.992;8.856;2022-07-01T01:04:31;18.00;99.90
31207;DHT22;17834;52.992;8.856;2022-07-01T01:06:58;18.00;99.90
31207;DHT22;17834;52.992;8.856;2022-07-01T01:09:24;17.80;99.90
31207;DHT22;17834;52.992;8.856;2022-07-01T01:11:49;17.80;99.90
31207;DHT22;17834;52.992;8.856;2022-07-01T01:14:15;17.80;99.90
31207;DHT22;17834;52.992;8.856;2022-07-01T01:16:41;17.70;99.90
31207;DHT22;17834;52.992;8.856;2022-07-01T01:19:06;17.50;99.90
31207;DHT22;17834;52.992;8.856;2022-07-01T01:21:35;17.50;99.90
31207;DHT22;17834;52.992;8.856;2022-07-01T01:24:01;17.40;99.90
31207;DHT22;17834;52.992;8.856;2022-07-01T01:26:26;17.40;99.90
31207;DHT22;17834;52.992;8.856;2022-07-01T01:28:52;17.30;99.90
31207;DHT22;17834;52.992;8.856;2022-07-01T01:31:27;17.30;99.90
31207;DHT22;17834;52.992;8.856;2022-07-01T01:33:56;17.30;99.90
31207;DHT22;17834;52.992;8.856;2022-07-01T01:36:22;17.30;99.90
31207;DHT22;17834;52.992;8.856;2022-07-01T01:38:48;17.20;99.90
31207;DHT22;17834;52.992;8.856;2022-07-01T01:41:13;17.20;99.90
31207;DHT22;17834;52.992;8.856;2022-07-01T01:43:39;17.30;99.90
31207;DHT22;17834;52.992;8.856;2022-07-01T01:46:05;17.20;99.90
31207;DHT22;17834;52.992;8.856;2022-07-01T01:48:31;17.30;99.90
31207;DHT22;17834;52.992;8.856;2022-07-01T01:50:57;17.20;99.90
31207;DHT22;17834;52.992;8.856;2022-07-01T01:53:23;17.10;99.90
31207;DHT22;17834;52.992;8.856;2022-07-01T01:55:49;17.20;99.90
31207;DHT22;17834;52.992;8.856;2022-07-01T01:58:14;17.20;99.90
31207;DHT22;17834;52.992;8.856;2022-07-01T02:00:40;17.10;99.90
31207;DHT22;17834;52.992;8.856;2022-07-01T02:03:06;17.10;99.90
31207;DHT22;17834;52.992;8.856;2022-07-01T02:05:32;16.90;99.90
31207;DHT22;17834;52.992;8.856;2022-07-01T02:07:57;16.90;99.90
31207;DHT22;17834;52.992;8.856;2022-07-01T02:10:23;16.60;99.90
31207;DHT22;17834;52.992;8.856;2022-07-01T02:12:49;16.60;99.90
31207;DHT22;17834;52.992;8.856;2022-07-01T02:15:14;16.60;99.90
31207;DHT22;17834;52.992;8.856;2022-07-01T02:17:40;16.40;99.90
31207;DHT22;17834;52.992;8.856;2022-07-01T02:20:06;16.40;99.90
31207;DHT22;17834;52.992;8.856;2022-07-01T02:22:31;16.20;99.90
31207;DHT22;17834;52.992;8.856;2022-07-01T02:24:57;16.20;99.90
31207;DHT22;17834;52.992;8.856;2022-07-01T02:27:22;16.10;99.90
31207;DHT22;17834;52.992;8.856;2022-07-01T02:29:48;16.10;99.90
31207;DHT22;17834;52.992;8.856;2022-07-01T02:32:14;16.10;99.90
31207;DHT22;17834;52.992;8.856;2022-07-01T02:34:39;16.00;99.90
31207;DHT22;17834;52.992;8.856;2022-07-01T02:37:05;16.00;99.90
31207;DHT22;17834;52.992;8.856;2022-07-01T02:39:32;16.00;99.90
31207;DHT22;17834;52.992;8.856;2022-07-01T02:41:58;16.00;99.90
31207;DHT22;17834;52.992;8.856;2022-07-01T02:44:42;15.90;99.90
31207;DHT22;17834;52.992;8.856;2022-07-01T02:47:07;15.80;99.90
31207;DHT22;17834;52.992;8.856;2022-07-01T02:49:33;15.80;99.90
31207;DHT22;17834;52.992;8.856;2022-07-01T02:51:58;15.80;99.90
31207;DHT22;17834;52.992;8.856;2022-07-01T02:54:24;15.70;99.90
31207;DHT22;17834;52.992;8.856;2022-07-01T02:56:49;15.70;99.90
31207;DHT22;17834;52.992;8.856;2022-07-01T02:59:15;15.70;99.90
31207;DHT22;17834;52.992;8.856;2022-07-01T03:01:41;15.70;99.90
31207;DHT22;17834;52.992;8.856;2022-07-01T03:04:06;15.60;99.90
31207;DHT22;17834;52.992;8.856;2022-07-01T03:06:32;15.70;99.90
31207;DHT22;17834;52.992;8.856;2022-07-01T03:08:57;15.60;99.90
31207;DHT22;17834;52.992;8.856;2022-07-01T03:11:23;15.60;99.90
31207;DHT22;17834;52.992;8.856;2022-07-01T03:13:49;15.50;99.90
31207;DHT22;17834;52.992;8.856;2022-07-01T03:16:14;15.50;99.90
31207;DHT22;17834;52.992;8.856;2022-07-01T03:18:40;15.60;99.90
31207;DHT22;17834;52.992;8.856;2022-07-01T03:21:06;15.50;99.90
31207;DHT22;17834;52.992;8.856;2022-07-01T03:23:31;15.50;99.90
31207;DHT22;17834;52.992;8.856;2022-07-01T03:25:57;15.50;99.90
31207;DHT22;17834;52.992;8.856;2022-07-01T03:28:22;15.50;99.90
31207;DHT22;17834;52.992;8.856;2022-07-01T03:30:48;15.50;99.90
31207;DHT22;17834;52.992;8.856;2022-07-01T03:33:13;15.50;99.90
31207;DHT22;17834;52.992;8.856;2022-07-01T03:35:39;15.60;99.90
31207;DHT22;17834;52.992;8.856;2022-07-01T03:38:06;15.60;99.90
31207;DHT22;17834;52.992;8.856;2022-07-01T03:40:33;15.60;99.90
31207;DHT22;17834;52.992;8.856;2022-07-01T03:42:59;15.60;99.90
31207;DHT22;17834;52.992;8.856;2022-07-01T03:45:25;15.60;99.90
31207;DHT22;17834;52.992;8.856;2022-07-01T03:47:51;15.50;99.90
31207;DHT22;17834;52.992;8.856;2022-07-01T03:50:20;15.60;99.90
31207;DHT22;17834;52.992;8.856;2022-07-01T03:52:46;15.50;99.90
31207;DHT22;17834;52.992;8.856;2022-07-01T03:55:12;15.60;99.90
31207;DHT22;17834;52.992;8.856;2022-07-01T03:57:38;15.50;99.90
31207;DHT22;17834;52.992;8.856;2022-07-01T04:00:05;15.50;99.90
31207;DHT22;17834;52.992;8.856;2022-07-01T04:02:31;15.50;99.90
31207;DHT22;17834;52.992;8.856;2022-07-01T04:04:56;15.50;99.90
31207;DHT22;17834;52.992;8.856;2022-07-01T04:07:22;15.50;99.90
31207;DHT22;17834;52.992;8.856;2022-07-01T04:09:48;15.50;99.90
31207;DHT22;17834;52.992;8.856;2022-07-01T04:12:13;15.60;99.90
31207;DHT22;17834;52.992;8.856;2022-07-01T04:14:39;15.50;99.90
31207;DHT22;17834;52.992;8.856;2022-07-01T04:17:05;15.50;99.90
31207;DHT22;17834;52.992;8.856;2022-07-01T04:19:32;15.50;99.90
31207;DHT22;17834;52.992;8.856;2022-07-01T04:21:57;15.40;99.90
31207;DHT22;17834;52.992;8.856;2022-07-01T04:24:41;15.40;99.90
31207;DHT22;17834;52.992;8.856;2022-07-01T04:27:07;15.40;99.90
31207;DHT22;17834;52.992;8.856;2022-07-01T04:29:33;15.30;99.90
31207;DHT22;17834;52.992;8.856;2022-07-01T04:31:59;15.30;99.90
31207;DHT22;17834;52.992;8.856;2022-07-01T04:34:25;15.20;99.90
31207;DHT22;17834;52.992;8.856;2022-07-01T04:36:51;15.30;99.90
31207;DHT22;17834;52.992;8.856;2022-07-01T04:39:17;15.30;99.90
31207;DHT22;17834;52.992;8.856;2022-07-01T04:41:42;15.30;99.90
31207;DHT22;17834;52.992;8.856;2022-07-01T04:44:28;15.30;99.90
31207;DHT22;17834;52.992;8.856;2022-07-01T04:46:54;15.30;99.90
31207;DHT22;17834;52.992;8.856;2022-07-01T04:49:20;15.40;99.90
31207;DHT22;17834;52.992;8.856;2022-07-01T04:51:45;15.40;99.90
31207;DHT22;17834;52.992;8.856;2022-07-01T04:54:11;15.40;99.90
31207;DHT22;17834;52.992;8.856;2022-07-01T04:56:37;15.40;99.90
31207;DHT22;17834;52.992;8.856;2022-07-01T04:59:03;15.40;99.90
31207;DHT22;17834;52.992;8.856;2022-07-01T05:01:29;15.40;99.90
31207;DHT22;17834;52.992;8.856;2022-07-01T05:03:56;15.40;99.90
31207;DHT22;17834;52.992;8.856;2022-07-01T05:06:22;15.40;99.90
31207;DHT22;17834;52.992;8.856;2022-07-01T05:08:48;15.40;99.90
31207;DHT22;17834;52.992;8.856;2022-07-01T05:11:13;15.30;99.90
31207;DHT22;17834;52.992;8.856;2022-07-01T05:13:39;15.40;99.90
31207;DHT22;17834;52.992;8.856;2022-07-01T05:16:05;15.40;99.90
31207;DHT22;17834;52.992;8.856;2022-07-01T05:18:31;15.40;99.90
31207;DHT22;17834;52.992;8.856;2022-07-01T05:21:16;15.50;99.90
31207;DHT22;17834;52.992;8.856;2022-07-01T05:24:01;15.50;99.90
31207;DHT22;17834;52.992;8.856;2022-07-01T05:26:27;15.60;99.90
31207;DHT22;17834;52.992;8.856;2022-07-01T05:28:53;15.60;99.90
31207;DHT22;17834;52.992;8.856;2022-07-01T05:31:19;15.60;99.90
31207;DHT22;17834;52.992;8.856;2022-07-01T05:33:45;15.70;99.90
31207;DHT22;17834;52.992;8.856;2022-07-01T05:36:10;15.80;99.90
31207;DHT22;17834;52.992;8.856;2022-07-01T05:38:36;15.80;99.90
31207;DHT22;17834;52.992;8.856;2022-07-01T05:41:02;15.90;99.90
31207;DHT22;17834;52.992;8.856;2022-07-01T05:43:28;16.00;99.90
31207;DHT22;17834;52.992;8.856;2022-07-01T05:45:54;16.10;99.90
31207;DHT22;17834;52.992;8.856;2022-07-01T05:48:20;16.10;99.90
31207;DHT22;17834;52.992;8.856;2022-07-01T05:50:46;16.20;99.90
31207;DHT22;17834;52.992;8.856;2022-07-01T05:53:12;16.00;99.90
31207;DHT22;17834;52.992;8.856;2022-07-01T05:55:38;16.00;99.90
31207;DHT22;17834;52.992;8.856;2022-07-01T05:58:04;16.00;99.90
31207;DHT22;17834;52.992;8.856;2022-07-01T06:00:31;16.00;99.90
31207;DHT22;17834;52.992;8.856;2022-07-01T06:02:57;15.90;99.90
31207;DHT22;17834;52.992;8.856;2022-07-01T06:05:23;15.90;99.90
31207;DHT22;17834;52.992;8.856;2022-07-01T06:07:48;16.00;99.90
31207;DHT22;17834;52.992;8.856;2022-07-01T06:10:14;16.00;99.90
31207;DHT22;17834;52.992;8.856;2022-07-01T06:12:40;16.00;99.90
31207;DHT22;17834;52.992;8.856;2022-07-01T06:15:07;16.10;99.90
31207;DHT22;17834;52.992;8.856;2022-07-01T06:17:34;16.00;99.90
31207;DHT22;17834;52.992;8.856;2022-07-01T06:20:00;15.90;99.90
31207;DHT22;17834;52.992;8.856;2022-07-01T06:22:26;16.00;99.90
31207;DHT22;17834;52.992;8.856;2022-07-01T06:24:51;16.00;99.90
31207;DHT22;17834;52.992;8.856;2022-07-01T06:27:17;16.10;99.90
31207;DHT22;17834;52.992;8.856;2022-07-01T06:29:43;16.10;99.90
31207;DHT22;17834;52.992;8.856;2022-07-01T06:32:08;16.10;99.90
31207;DHT22;17834;52.992;8.856;2022-07-01T06:34:34;16.10;99.90
31207;DHT22;17834;52.992;8.856;2022-07-01T06:37:00;16.10;99.90
31207;DHT22;17834;52.992;8.856;2022-07-01T06:39:27;16.20;99.90
31207;DHT22;17834;52.992;8.856;2022-07-01T06:41:53;16.20;99.90
31207;DHT22;17834;52.992;8.856;2022-07-01T06:44:19;16.10;99.90
31207;DHT22;17834;52.992;8.856;2022-07-01T06:46:45;16.10;99.90
31207;DHT22;17834;52.992;8.856;2022-07-01T06:49:10;16.00;99.90
31207;DHT22;17834;52.992;8.856;2022-07-01T06:51:36;15.90;99.90
31207;DHT22;17834;52.992;8.856;2022-07-01T06:54:02;15.90;99.90
31207;DHT22;17834;52.992;8.856;2022-07-01T06:56:28;15.80;99.90
31207;DHT22;17834;52.992;8.856;2022-07-01T06:58:53;15.90;99.90
31207;DHT22;17834;52.992;8.856;2022-07-01T07:01:19;15.80;99.90
31207;DHT22;17834;52.992;8.856;2022-07-01T07:03:45;15.80;99.90
31207;DHT22;17834;52.992;8.856;2022-07-01T07:06:11;15.90;99.90
31207;DHT22;17834;52.992;8.856;2022-07-01T07:08:36;15.80;99.90
31207;DHT22;17834;52.992;8.856;2022-07-01T07:11:02;15.90;99.90
31207;DHT22;17834;52.992;8.856;2022-07-01T07:13:28;16.00;99.90
31207;DHT22;17834;52.992;8.856;2022-07-01T07:15:54;16.10;99.90
31207;DHT22;17834;52.992;8.856;2022-07-01T07:18:20;16.10;99.90
31207;DHT22;17834;52.992;8.856;2022-07-01T07:20:46;16.20;99.90
31207;DHT22;17834;52.992;8.856;2022-07-01T07:23:13;16.20;99.90
31207;DHT22;17834;52.992;8.856;2022-07-01T07:25:39;16.40;99.90
31207;DHT22;17834;52.992;8.856;2022-07-01T07:28:04;16.50;99.90
31207;DHT22;17834;52.992;8.856;2022-07-01T07:30:30;16.70;99.90
31207;DHT22;17834;52.992;8.856;2022-07-01T07:32:56;16.90;99.90
31207;DHT22;17834;52.992;8.856;2022-07-01T07:35:21;17.00;99.90
31207;DHT22;17834;52.992;8.856;2022-07-01T07:37:47;17.10;99.90
31207;DHT22;17834;52.992;8.856;2022-07-01T07:40:13;17.30;99.90
31207;DHT22;17834;52.992;8.856;2022-07-01T07:42:44;17.30;99.90
31207;DHT22;17834;52.992;8.856;2022-07-01T07:45:10;17.40;99.90
31207;DHT22;17834;52.992;8.856;2022-07-01T07:47:38;17.40;99.90
31207;DHT22;17834;52.992;8.856;2022-07-01T07:50:04;17.50;99.90
31207;DHT22;17834;52.992;8.856;2022-07-01T07:52:30;17.60;99.90
31207;DHT22;17834;52.992;8.856;2022-07-01T07:54:56;17.60;99.90
31207;DHT22;17834;52.992;8.856;2022-07-01T07:57:22;17.50;99.90
31207;DHT22;17834;52.992;8.856;2022-07-01T07:59:47;17.50;99.90
31207;DHT22;17834;52.992;8.856;2022-07-01T08:02:14;17.40;99.90
31207;DHT22;17834;52.992;8.856;2022-07-01T08:04:40;17.50;99.90
31207;DHT22;17834;52.992;8.856;2022-07-01T08:07:05;17.40;99.90
31207;DHT22;17834;52.992;8.856;2022-07-01T08:09:31;17.50;99.90
31207;DHT22;17834;52.992;8.856;2022-07-01T08:12:15;17.40;99.90
31207;DHT22;17834;52.992;8.856;2022-07-01T08:15:01;17.50;99.90
31207;DHT22;17834;52.992;8.856;2022-07-01T08:17:26;17.60;99.90
31207;DHT22;17834;52.992;8.856;2022-07-01T08:19:52;17.70;99.90
31207;DHT22;17834;52.992;8.856;2022-07-01T08:22:18;17.70;99.90
31207;DHT22;17834;52.992;8.856;2022-07-01T08:24:44;17.70;99.90
31207;DHT22;17834;52.992;8.856;2022-07-01T08:27:10;17.60;99.90
31207;DHT22;17834;52.992;8.856;2022-07-01T08:29:36;17.60;99.90
31207;DHT22;17834;52.992;8.856;2022-07-01T08:32:02;17.40;99.90
31207;DHT22;17834;52.992;8.856;2022-07-01T08:34:28;17.30;99.90
31207;DHT22;17834;52.992;8.856;2022-07-01T08:36:53;17.30;99.90
31207;DHT22;17834;52.992;8.856;2022-07-01T08:39:21;17.40;99.90
31207;DHT22;17834;52.992;8.856;2022-07-01T08:41:47;17.40;99.90
31207;DHT22;17834;52.992;8.856;2022-07-01T08:44:13;17.50;99.90
31207;DHT22;17834;52.992;8.856;2022-07-01T08:46:38;17.60;99.90
31207;DHT22;17834;52.992;8.856;2022-07-01T08:49:04;17.80;99.90
31207;DHT22;17834;52.992;8.856;2022-07-01T08:51:30;17.90;99.90
31207;DHT22;17834;52.992;8.856;2022-07-01T08:53:55;18.00;99.90
31207;DHT22;17834;52.992;8.856;2022-07-01T08:56:21;17.90;99.90
31207;DHT22;17834;52.992;8.856;2022-07-01T08:59:05;17.90;99.90
31207;DHT22;17834;52.992;8.856;2022-07-01T09:01:33;17.70;99.90
31207;DHT22;17834;52.992;8.856;2022-07-01T09:04:14;17.70;99.90
31207;DHT22;17834;52.992;8.856;2022-07-01T09:06:40;17.70;99.90
31207;DHT22;17834;52.992;8.856;2022-07-01T09:09:17;17.70;99.90
31207;DHT22;17834;52.992;8.856;2022-07-01T09:11:51;17.70;99.90
31207;DHT22;17834;52.992;8.856;2022-07-01T09:14:24;17.70;99.90
31207;DHT22;17834;52.992;8.856;2022-07-01T09:16:55;17.80;99.90
31207;DHT22;17834;52.992;8.856;2022-07-01T09:19:22;17.80;99.90
31207;DHT22;17834;52.992;8.856;2022-07-01T09:21:50;17.90;99.90
31207;DHT22;17834;52.992;8.856;2022-07-01T09:24:31;18.00;99.90
31207;DHT22;17834;52.992;8.856;2022-07-01T09:27:09;18.20;99.90
31207;DHT22;17834;52.992;8.856;2022-07-01T09:29:43;18.40;99.90
31207;DHT22;17834;52.992;8.856;2022-07-01T09:32:11;18.50;99.90
31207;DHT22;17834;52.992;8.856;2022-07-01T09:34:41;18.70;99.90
31207;DHT22;17834;52.992;8.856;2022-07-01T09:37:07;18.80;99.90
31207;DHT22;17834;52.992;8.856;2022-07-01T09:39:45;18.90;99.90
31207;DHT22;17834;52.992;8.856;2022-07-01T09:42:11;18.90;99.90
31207;DHT22;17834;52.992;8.856;2022-07-01T09:47:16;18.60;99.90
31207;DHT22;17834;52.992;8.856;2022-07-01T09:49:42;18.60;99.90
31207;DHT22;17834;52.992;8.856;2022-07-01T09:52:08;18.60;99.90
31207;DHT22;17834;52.992;8.856;2022-07-01T09:54:35;18.60;99.90
31207;DHT22;17834;52.992;8.856;2022-07-01T09:57:02;18.70;99.90
31207;DHT22;17834;52.992;8.856;2022-07-01T09:59:28;18.80;99.90
31207;DHT22;17834;52.992;8.856;2022-07-01T10:01:54;18.90;99.90
31207;DHT22;17834;52.992;8.856;2022-07-01T10:04:20;18.90;99.90
31207;DHT22;17834;52.992;8.856;2022-07-01T10:06:56;19.00;99.90
31207;DHT22;17834;52.992;8.856;2022-07-01T10:14:37;19.20;99.90
31207;DHT22;17834;52.992;8.856;2022-07-01T10:17:03;19.10;99.90
31207;DHT22;17834;52.992;8.856;2022-07-01T10:19:30;19.10;99.90
31207;DHT22;17834;52.992;8.856;2022-07-01T10:24:46;18.90;99.90
31207;DHT22;17834;52.992;8.856;2022-07-01T10:27:20;18.90;99.90
31207;DHT22;17834;52.992;8.856;2022-07-01T10:29:46;18.80;99.90
31207;DHT22;17834;52.992;8.856;2022-07-01T10:32:32;18.80;99.90
31207;DHT22;17834;52.992;8.856;2022-07-01T10:35:05;18.80;99.90
31207;DHT22;17834;52.992;8.856;2022-07-01T10:37:31;18.80;99.90
31207;DHT22;17834;52.992;8.856;2022-07-01T10:39:58;18.90;99.90
31207;DHT22;17834;52.992;8.856;2022-07-01T10:42:35;19.00;99.90
31207;DHT22;17834;52.992;8.856;2022-07-01T10:45:17;19.10;99.90
31207;DHT22;17834;52.992;8.856;2022-07-01T10:47:43;19.30;99.90
31207;DHT22;17834;52.992;8.856;2022-07-01T10:50:12;19.40;99.90
31207;DHT22;17834;52.992;8.856;2022-07-01T10:52:40;19.50;99.90
31207;DHT22;17834;52.992;8.856;2022-07-01T10:55:39;19.70;99.90
31207;DHT22;17834;52.992;8.856;2022-07-01T10:58:06;19.80;99.90
31207;DHT22;17834;52.992;8.856;2022-07-01T11:00:34;19.90;99.90
31207;DHT22;17834;52.992;8.856;2022-07-01T11:03:21;20.10;99.90
31207;DHT22;17834;52.992;8.856;2022-07-01T11:05:50;20.40;99.90
31207;DHT22;17834;52.992;8.856;2022-07-01T11:08:16;20.60;99.90
31207;DHT22;17834;52.992;8.856;2022-07-01T11:10:42;20.90;99.90
31207;DHT22;17834;52.992;8.856;2022-07-01T11:13:09;21.20;99.90
31207;DHT22;17834;52.992;8.856;2022-07-01T11:15:38;21.60;99.90
31207;DHT22;17834;52.992;8.856;2022-07-01T11:18:04;21.80;99.90
31207;DHT22;17834;52.992;8.856;2022-07-01T11:20:31;21.90;99.90
31207;DHT22;17834;52.992;8.856;2022-07-01T11:22:57;22.00;99.90
31207;DHT22;17834;52.992;8.856;2022-07-01T11:25:23;22.10;99.90
31207;DHT22;17834;52.992;8.856;2022-07-01T11:27:51;22.30;99.90
31207;DHT22;17834;52.992;8.856;2022-07-01T11:30:18;22.40;98.00
31207;DHT22;17834;52.992;8.856;2022-07-01T11:32:47;22.50;99.60
31207;DHT22;17834;52.992;8.856;2022-07-01T11:35:16;22.80;99.90
31207;DHT22;17834;52.992;8.856;2022-07-01T11:38:16;22.90;96.70
31207;DHT22;17834;52.992;8.856;2022-07-01T11:41:10;22.90;95.30
31207;DHT22;17834;52.992;8.856;2022-07-01T11:43:39;23.00;94.10
31207;DHT22;17834;52.992;8.856;2022-07-01T11:46:06;23.00;92.10
31207;DHT22;17834;52.992;8.856;2022-07-01T11:48:38;23.10;93.40
31207;DHT22;17834;52.992;8.856;2022-07-01T11:51:08;23.20;93.00
31207;DHT22;17834;52.992;8.856;2022-07-01T11:53:35;23.30;91.70
31207;DHT22;17834;52.992;8.856;2022-07-01T11:56:00;23.30;91.50
31207;DHT22;17834;52.992;8.856;2022-07-01T11:58:40;23.10;90.80
31207;DHT22;17834;52.992;8.856;2022-07-01T12:01:06;23.00;91.20
31207;DHT22;17834;52.992;8.856;2022-07-01T12:03:33;23.10;92.50
31207;DHT22;17834;52.992;8.856;2022-07-01T12:05:59;23.10;91.40
31207;DHT22;17834;52.992;8.856;2022-07-01T12:08:26;23.30;90.30
31207;DHT22;17834;52.992;8.856;2022-07-01T12:10:52;23.40;88.70
31207;DHT22;17834;52.992;8.856;2022-07-01T12:13:25;23.30;85.80
31207;DHT22;17834;52.992;8.856;2022-07-01T12:15:51;23.40;88.20
31207;DHT22;17834;52.992;8.856;2022-07-01T12:18:17;23.60;89.60
31207;DHT22;17834;52.992;8.856;2022-07-01T12:21:09;23.60;85.90
31207;DHT22;17834;52.992;8.856;2022-07-01T12:23:35;23.70;86.50
31207;DHT22;17834;52.992;8.856;2022-07-01T12:26:04;23.60;85.00
31207;DHT22;17834;52.992;8.856;2022-07-01T12:28:37;23.60;87.90
31207;DHT22;17834;52.992;8.856;2022-07-01T12:31:07;23.70;86.00
31207;DHT22;17834;52.992;8.856;2022-07-01T12:33:48;23.60;85.30
31207;DHT22;17834;52.992;8.856;2022-07-01T12:36:14;23.70;85.20
31207;DHT22;17834;52.992;8.856;2022-07-01T12:38:41;23.50;83.20
31207;DHT22;17834;52.992;8.856;2022-07-01T12:41:33;23.50;85.20
31207;DHT22;17834;52.992;8.856;2022-07-01T12:44:19;23.30;84.80
31207;DHT22;17834;52.992;8.856;2022-07-01T12:46:46;23.10;86.00
31207;DHT22;17834;52.992;8.856;2022-07-01T12:49:19;23.00;83.60
31207;DHT22;17834;52.992;8.856;2022-07-01T12:51:45;22.90;85.90
31207;DHT22;17834;52.992;8.856;2022-07-01T12:54:32;23.00;84.80
31207;DHT22;17834;52.992;8.856;2022-07-01T12:56:58;22.90;83.80
31207;DHT22;17834;52.992;8.856;2022-07-01T12:59:24;22.80;84.90
31207;DHT22;17834;52.992;8.856;2022-07-01T13:01:50;22.70;85.80
31207;DHT22;17834;52.992;8.856;2022-07-01T13:04:27;22.60;86.40
31207;DHT22;17834;52.992;8.856;2022-07-01T13:06:53;22.70;84.80
31207;DHT22;17834;52.992;8.856;2022-07-01T13:09:19;22.80;84.80
31207;DHT22;17834;52.992;8.856;2022-07-01T13:11:45;22.70;83.50
31207;DHT22;17834;52.992;8.856;2022-07-01T13:14:11;22.60;82.30
31207;DHT22;17834;52.992;8.856;2022-07-01T13:16:37;22.50;83.00
31207;DHT22;17834;52.992;8.856;2022-07-01T13:19:03;22.40;85.90
31207;DHT22;17834;52.992;8.856;2022-07-01T13:21:29;22.30;85.60
31207;DHT22;17834;52.992;8.856;2022-07-01T13:23:55;22.40;85.60
31207;DHT22;17834;52.992;8.856;2022-07-01T13:26:21;22.40;83.00
31207;DHT22;17834;52.992;8.856;2022-07-01T13:28:46;22.60;82.70
31207;DHT22;17834;52.992;8.856;2022-07-01T13:31:12;22.70;83.70
31207;DHT22;17834;52.992;8.856;2022-07-01T13:33:38;22.90;84.40
31207;DHT22;17834;52.992;8.856;2022-07-01T13:36:05;23.00;81.70
31207;DHT22;17834;52.992;8.856;2022-07-01T13:38:30;22.90;81.90
31207;DHT22;17834;52.992;8.856;2022-07-01T13:40:56;22.80;85.30
31207;DHT22;17834;52.992;8.856;2022-07-01T13:43:22;22.70;83.00
31207;DHT22;17834;52.992;8.856;2022-07-01T13:45:47;22.40;82.80
31207;DHT22;17834;52.992;8.856;2022-07-01T13:48:13;22.30;82.80
31207;DHT22;17834;52.992;8.856;2022-07-01T13:50:38;22.20;82.10
31207;DHT22;17834;52.992;8.856;2022-07-01T13:53:04;22.00;84.40
31207;DHT22;17834;52.992;8.856;2022-07-01T13:55:30;21.90;85.90
31207;DHT22;17834;52.992;8.856;2022-07-01T13:57:56;22.00;83.40
31207;DHT22;17834;52.992;8.856;2022-07-01T14:00:21;22.00;83.70
31207;DHT22;17834;52.992;8.856;2022-07-01T14:02:47;22.10;84.20
31207;DHT22;17834;52.992;8.856;2022-07-01T14:05:12;22.00;84.40
31207;DHT22;17834;52.992;8.856;2022-07-01T14:07:38;22.20;87.30
31207;DHT22;17834;52.992;8.856;2022-07-01T14:10:04;22.40;85.50
31207;DHT22;17834;52.992;8.856;2022-07-01T14:12:30;22.50;84.40
31207;DHT22;17834;52.992;8.856;2022-07-01T14:14:56;22.80;84.20
31207;DHT22;17834;52.992;8.856;2022-07-01T14:17:23;22.90;83.20
31207;DHT22;17834;52.992;8.856;2022-07-01T14:19:49;23.20;81.70
31207;DHT22;17834;52.992;8.856;2022-07-01T14:22:14;23.50;80.80
31207;DHT22;17834;52.992;8.856;2022-07-01T14:24:40;23.50;79.20
31207;DHT22;17834;52.992;8.856;2022-07-01T14:27:06;23.50;79.70
31207;DHT22;17834;52.992;8.856;2022-07-01T14:29:31;23.40;78.50
31207;DHT22;17834;52.992;8.856;2022-07-01T14:31:57;23.30;78.40
31207;DHT22;17834;52.992;8.856;2022-07-01T14:34:25;23.10;78.40
31207;DHT22;17834;52.992;8.856;2022-07-01T14:36:50;22.90;77.00
31207;DHT22;17834;52.992;8.856;2022-07-01T14:39:16;22.70;81.00
31207;DHT22;17834;52.992;8.856;2022-07-01T14:41:42;22.50;80.80
31207;DHT22;17834;52.992;8.856;2022-07-01T14:44:08;22.30;82.00
31207;DHT22;17834;52.992;8.856;2022-07-01T14:46:33;22.00;80.80
31207;DHT22;17834;52.992;8.856;2022-07-01T14:48:59;21.90;82.00
31207;DHT22;17834;52.992;8.856;2022-07-01T14:51:25;21.90;83.30
31207;DHT22;17834;52.992;8.856;2022-07-01T14:53:51;21.90;82.60
31207;DHT22;17834;52.992;8.856;2022-07-01T14:56:17;21.90;81.50
31207;DHT22;17834;52.992;8.856;2022-07-01T14:58:42;21.80;83.70
31207;DHT22;17834;52.992;8.856;2022-07-01T15:01:11;21.70;84.40
31207;DHT22;17834;52.992;8.856;2022-07-01T15:03:37;21.70;83.00
31207;DHT22;17834;52.992;8.856;2022-07-01T15:06:03;21.70;81.80
31207;DHT22;17834;52.992;8.856;2022-07-01T15:08:29;21.90;83.00
31207;DHT22;17834;52.992;8.856;2022-07-01T15:10:54;22.20;80.70
31207;DHT22;17834;52.992;8.856;2022-07-01T15:13:32;22.50;80.80
31207;DHT22;17834;52.992;8.856;2022-07-01T15:16:00;22.80;82.10
31207;DHT22;17834;52.992;8.856;2022-07-01T15:18:26;23.10;78.60
31207;DHT22;17834;52.992;8.856;2022-07-01T15:20:52;23.30;80.90
31207;DHT22;17834;52.992;8.856;2022-07-01T15:23:17;23.50;79.10
31207;DHT22;17834;52.992;8.856;2022-07-01T15:25:43;23.50;79.30
31207;DHT22;17834;52.992;8.856;2022-07-01T15:28:09;23.30;78.30
31207;DHT22;17834;52.992;8.856;2022-07-01T15:30:34;23.30;78.30
31207;DHT22;17834;52.992;8.856;2022-07-01T15:33:01;23.10;79.00
31207;DHT22;17834;52.992;8.856;2022-07-01T15:35:26;23.10;79.30
31207;DHT22;17834;52.992;8.856;2022-07-01T15:37:52;23.10;77.90
31207;DHT22;17834;52.992;8.856;2022-07-01T15:40:17;23.00;78.50
31207;DHT22;17834;52.992;8.856;2022-07-01T15:42:43;23.00;77.70